sensor_id;sensor_type;location;lat;lon;timestamp;P1;durP1;ratioP1;P2;durP2;ratioP2
47860;SDS011;33620;52.340;5.984;2023-09-19T00:00:37;17.17;;;3.20;;
47860;SDS011;33620;52.340;5.984;2023-09-19T00:03:03;11.43;;;2.88;;
47860;SDS011;33620;52.340;5.984;2023-09-19T00:05:33;17.30;;;3.22;;
47860;SDS011;33620;52.340;5.984;2023-09-19T00:08:00;14.20;;;3.70;;
47860;SDS011;33620;52.340;5.984;2023-09-19T00:10:26;17.20;;;3.65;;
47860;SDS011;33620;52.340;5.984;2023-09-19T00:12:56;18.58;;;4.47;;
47860;SDS011;33620;52.340;5.984;2023-09-19T00:15:30;12.50;;;3.22;;
47860;SDS011;33620;52.340;5.984;2023-09-19T00:18:01;11.38;;;3.40;;
47860;SDS011;33620;52.340;5.984;2023-09-19T00:20:26;17.58;;;4.15;;
47860;SDS011;33620;52.340;5.984;2023-09-19T00:22:53;14.00;;;3.25;;
47860;SDS011;33620;52.340;5.984;2023-09-19T00:25:22;12.63;;;2.75;;
47860;SDS011;33620;52.340;5.984;2023-09-19T00:27:47;12.02;;;3.53;;
47860;SDS011;33620;52.340;5.984;2023-09-19T00:30:15;17.17;;;3.65;;
47860;SDS011;33620;52.340;5.984;2023-09-19T00:32:44;20.98;;;4.05;;
47860;SDS011;33620;52.340;5.984;2023-09-19T00:35:12;14.27;;;3.42;;
47860;SDS011;33620;52.340;5.984;2023-09-19T00:37:41;15.60;;;3.35;;
47860;SDS011;33620;52.340;5.984;2023-09-19T00:40:07;12.50;;;2.97;;
47860;SDS011;33620;52.340;5.984;2023-09-19T00:42:37;15.05;;;3.70;;
47860;SDS011;33620;52.340;5.984;2023-09-19T00:45:03;14.52;;;3.92;;
47860;SDS011;33620;52.340;5.984;2023-09-19T00:47:30;12.38;;;3.85;;
47860;SDS011;33620;52.340;5.984;2023-09-19T00:49:55;13.30;;;3.20;;
47860;SDS011;33620;52.340;5.984;2023-09-19T00:52:21;10.75;;;2.95;;
47860;SDS011;33620;52.340;5.984;2023-09-19T00:54:48;12.27;;;2.90;;
47860;SDS011;33620;52.340;5.984;2023-09-19T00:57:14;15.05;;;2.90;;
47860;SDS011;33620;52.340;5.984;2023-09-19T00:59:44;13.70;;;3.38;;
47860;SDS011;33620;52.340;5.984;2023-09-19T01:02:09;11.38;;;3.35;;
47860;SDS011;33620;52.340;5.984;2023-09-19T01:04:36;16.85;;;3.22;;
47860;SDS011;33620;52.340;5.984;2023-09-19T01:07:02;13.25;;;3.15;;
47860;SDS011;33620;52.340;5.984;2023-09-19T01:09:29;12.48;;;3.45;;
47860;SDS011;33620;52.340;5.984;2023-09-19T01:11:58;10.02;;;2.90;;
47860;SDS011;33620;52.340;5.984;2023-09-19T01:14:47;13.52;;;3.40;;
47860;SDS011;33620;52.340;5.984;2023-09-19T01:20:23;14.00;;;3.10;;
47860;SDS011;33620;52.340;5.984;2023-09-19T01:23:00;14.40;;;3.00;;
47860;SDS011;33620;52.340;5.984;2023-09-19T01:30:56;14.20;;;3.25;;
47860;SDS011;33620;52.340;5.984;2023-09-19T01:33:25;13.65;;;2.97;;
47860;SDS011;33620;52.340;5.984;2023-09-19T01:35:51;9.70;;;2.67;;
47860;SDS011;33620;52.340;5.984;2023-09-19T01:38:18;13.73;;;3.30;;
47860;SDS011;33620;52.340;5.984;2023-09-19T01:40:47;11.45;;;2.92;;
47860;SDS011;33620;52.340;5.984;2023-09-19T01:43:26;19.58;;;3.50;;
47860;SDS011;33620;52.340;5.984;2023-09-19T01:46:13;14.85;;;2.90;;
47860;SDS011;33620;52.340;5.984;2023-09-19T01:48:49;8.07;;;2.95;;
47860;SDS011;33620;52.340;5.984;2023-09-19T01:51:37;7.40;;;2.40;;
47860;SDS011;33620;52.340;5.984;2023-09-19T01:54:30;12.82;;;3.72;;
47860;SDS011;33620;52.340;5.984;2023-09-19T01:57:04;10.85;;;2.25;;
47860;SDS011;33620;52.340;5.984;2023-09-19T01:59:48;11.20;;;2.53;;
47860;SDS011;33620;52.340;5.984;2023-09-19T02:02:17;13.88;;;2.80;;
47860;SDS011;33620;52.340;5.984;2023-09-19T02:04:46;10.02;;;2.78;;
47860;SDS011;33620;52.340;5.984;2023-09-19T02:07:13;8.23;;;2.42;;
47860;SDS011;33620;52.340;5.984;2023-09-19T02:09:40;11.93;;;2.90;;
47860;SDS011;33620;52.340;5.984;2023-09-19T02:12:10;10.85;;;2.70;;
47860;SDS011;33620;52.340;5.984;2023-09-19T02:14:36;12.00;;;3.15;;
47860;SDS011;33620;52.340;5.984;2023-09-19T02:17:02;11.30;;;3.88;;
47860;SDS011;33620;52.340;5.984;2023-09-19T02:19:32;13.70;;;2.90;;
47860;SDS011;33620;52.340;5.984;2023-09-19T02:21:58;12.13;;;2.88;;
47860;SDS011;33620;52.340;5.984;2023-09-19T02:24:24;14.23;;;2.83;;
47860;SDS011;33620;52.340;5.984;2023-09-19T02:26:51;13.85;;;3.53;;
47860;SDS011;33620;52.340;5.984;2023-09-19T02:29:17;8.32;;;2.58;;
47860;SDS011;33620;52.340;5.984;2023-09-19T02:31:42;15.20;;;3.13;;
47860;SDS011;33620;52.340;5.984;2023-09-19T02:34:08;14.18;;;3.20;;
47860;SDS011;33620;52.340;5.984;2023-09-19T02:36:35;10.82;;;3.15;;
47860;SDS011;33620;52.340;5.984;2023-09-19T02:39:01;12.63;;;3.20;;
47860;SDS011;33620;52.340;5.984;2023-09-19T02:41:26;19.83;;;3.75;;
47860;SDS011;33620;52.340;5.984;2023-09-19T02:43:54;17.60;;;3.38;;
47860;SDS011;33620;52.340;5.984;2023-09-19T02:46:19;10.65;;;3.08;;
47860;SDS011;33620;52.340;5.984;2023-09-19T02:48:45;13.38;;;3.60;;
47860;SDS011;33620;52.340;5.984;2023-09-19T02:51:10;14.55;;;3.65;;
47860;SDS011;33620;52.340;5.984;2023-09-19T02:53:35;13.95;;;3.63;;
47860;SDS011;33620;52.340;5.984;2023-09-19T02:56:03;14.57;;;3.80;;
47860;SDS011;33620;52.340;5.984;2023-09-19T02:58:29;15.30;;;3.40;;
47860;SDS011;33620;52.340;5.984;2023-09-19T03:00:55;11.98;;;3.60;;
47860;SDS011;33620;52.340;5.984;2023-09-19T03:03:20;17.42;;;3.75;;
47860;SDS011;33620;52.340;5.984;2023-09-19T03:05:46;16.63;;;4.03;;
47860;SDS011;33620;52.340;5.984;2023-09-19T03:08:15;16.60;;;3.33;;
47860;SDS011;33620;52.340;5.984;2023-09-19T03:10:41;14.77;;;3.83;;
47860;SDS011;33620;52.340;5.984;2023-09-19T03:13:07;16.48;;;3.30;;
47860;SDS011;33620;52.340;5.984;2023-09-19T03:15:35;16.95;;;3.53;;
47860;SDS011;33620;52.340;5.984;2023-09-19T03:18:03;16.02;;;3.28;;
47860;SDS011;33620;52.340;5.984;2023-09-19T03:20:29;18.73;;;3.53;;
47860;SDS011;33620;52.340;5.984;2023-09-19T03:22:54;15.80;;;3.78;;
47860;SDS011;33620;52.340;5.984;2023-09-19T03:25:21;15.95;;;2.92;;
47860;SDS011;33620;52.340;5.984;2023-09-19T03:27:48;16.90;;;3.75;;
47860;SDS011;33620;52.340;5.984;2023-09-19T03:30:14;15.98;;;3.10;;
47860;SDS011;33620;52.340;5.984;2023-09-19T03:32:46;19.20;;;4.15;;
47860;SDS011;33620;52.340;5.984;2023-09-19T03:37:40;17.08;;;4.03;;
47860;SDS011;33620;52.340;5.984;2023-09-19T03:40:07;16.02;;;4.13;;
47860;SDS011;33620;52.340;5.984;2023-09-19T03:42:35;17.77;;;3.72;;
47860;SDS011;33620;52.340;5.984;2023-09-19T03:45:03;13.40;;;3.47;;
47860;SDS011;33620;52.340;5.984;2023-09-19T03:47:29;16.05;;;3.83;;
47860;SDS011;33620;52.340;5.984;2023-09-19T03:49:54;20.02;;;3.95;;
47860;SDS011;33620;52.340;5.984;2023-09-19T03:52:19;17.85;;;3.75;;
47860;SDS011;33620;52.340;5.984;2023-09-19T03:54:45;16.17;;;3.60;;
47860;SDS011;33620;52.340;5.984;2023-09-19T03:57:12;18.00;;;3.92;;
47860;SDS011;33620;52.340;5.984;2023-09-19T03:59:45;23.02;;;4.10;;
47860;SDS011;33620;52.340;5.984;2023-09-19T04:02:12;16.33;;;3.95;;
47860;SDS011;33620;52.340;5.984;2023-09-19T04:04:47;17.17;;;3.85;;
47860;SDS011;33620;52.340;5.984;2023-09-19T04:07:13;18.35;;;3.83;;
47860;SDS011;33620;52.340;5.984;2023-09-19T04:09:38;14.73;;;3.40;;
47860;SDS011;33620;52.340;5.984;2023-09-19T04:12:04;14.98;;;3.30;;
47860;SDS011;33620;52.340;5.984;2023-09-19T04:14:30;15.52;;;3.50;;
47860;SDS011;33620;52.340;5.984;2023-09-19T04:16:57;17.17;;;3.42;;
47860;SDS011;33620;52.340;5.984;2023-09-19T04:19:22;18.35;;;3.50;;
47860;SDS011;33620;52.340;5.984;2023-09-19T04:21:49;16.67;;;3.58;;
47860;SDS011;33620;52.340;5.984;2023-09-19T04:24:14;14.30;;;3.17;;
47860;SDS011;33620;52.340;5.984;2023-09-19T04:26:39;21.15;;;4.10;;
47860;SDS011;33620;52.340;5.984;2023-09-19T04:29:05;16.77;;;3.30;;
47860;SDS011;33620;52.340;5.984;2023-09-19T04:31:31;12.60;;;3.80;;
47860;SDS011;33620;52.340;5.984;2023-09-19T04:33:56;15.23;;;3.92;;
47860;SDS011;33620;52.340;5.984;2023-09-19T04:36:24;18.73;;;4.07;;
47860;SDS011;33620;52.340;5.984;2023-09-19T04:38:49;17.08;;;3.40;;
47860;SDS011;33620;52.340;5.984;2023-09-19T04:41:15;13.43;;;3.22;;
47860;SDS011;33620;52.340;5.984;2023-09-19T04:43:42;15.82;;;4.13;;
47860;SDS011;33620;52.340;5.984;2023-09-19T04:46:07;17.33;;;3.97;;
47860;SDS011;33620;52.340;5.984;2023-09-19T04:48:32;15.18;;;3.63;;
47860;SDS011;33620;52.340;5.984;2023-09-19T04:50:59;19.77;;;3.70;;
47860;SDS011;33620;52.340;5.984;2023-09-19T04:53:25;17.08;;;4.22;;
47860;SDS011;33620;52.340;5.984;2023-09-19T04:55:54;16.77;;;4.38;;
47860;SDS011;33620;52.340;5.984;2023-09-19T04:58:20;15.95;;;3.88;;
47860;SDS011;33620;52.340;5.984;2023-09-19T05:00:48;15.45;;;3.47;;
47860;SDS011;33620;52.340;5.984;2023-09-19T05:03:16;17.17;;;3.95;;
47860;SDS011;33620;52.340;5.984;2023-09-19T05:05:42;20.65;;;3.88;;
47860;SDS011;33620;52.340;5.984;2023-09-19T05:08:07;14.13;;;4.00;;
47860;SDS011;33620;52.340;5.984;2023-09-19T05:10:35;15.13;;;3.90;;
47860;SDS011;33620;52.340;5.984;2023-09-19T05:13:05;14.57;;;3.22;;
47860;SDS011;33620;52.340;5.984;2023-09-19T05:15:33;16.02;;;4.13;;
47860;SDS011;33620;52.340;5.984;2023-09-19T05:18:01;22.42;;;4.50;;
47860;SDS011;33620;52.340;5.984;2023-09-19T05:20:28;15.60;;;3.33;;
47860;SDS011;33620;52.340;5.984;2023-09-19T05:23:03;15.80;;;3.55;;
47860;SDS011;33620;52.340;5.984;2023-09-19T05:25:36;17.23;;;3.95;;
47860;SDS011;33620;52.340;5.984;2023-09-19T05:28:03;16.13;;;3.40;;
47860;SDS011;33620;52.340;5.984;2023-09-19T05:30:33;18.45;;;3.63;;
47860;SDS011;33620;52.340;5.984;2023-09-19T05:33:00;13.68;;;3.60;;
47860;SDS011;33620;52.340;5.984;2023-09-19T05:35:27;17.65;;;3.60;;
47860;SDS011;33620;52.340;5.984;2023-09-19T05:37:53;14.35;;;3.45;;
47860;SDS011;33620;52.340;5.984;2023-09-19T05:40:20;15.60;;;3.25;;
47860;SDS011;33620;52.340;5.984;2023-09-19T05:42:46;17.15;;;3.65;;
47860;SDS011;33620;52.340;5.984;2023-09-19T05:45:12;17.05;;;4.03;;
47860;SDS011;33620;52.340;5.984;2023-09-19T05:47:39;15.15;;;3.10;;
47860;SDS011;33620;52.340;5.984;2023-09-19T05:50:09;11.43;;;3.67;;
47860;SDS011;33620;52.340;5.984;2023-09-19T05:52:35;21.75;;;4.15;;
47860;SDS011;33620;52.340;5.984;2023-09-19T05:55:04;12.10;;;3.33;;
47860;SDS011;33620;52.340;5.984;2023-09-19T05:57:32;15.90;;;3.53;;
47860;SDS011;33620;52.340;5.984;2023-09-19T05:59:57;15.10;;;3.45;;
47860;SDS011;33620;52.340;5.984;2023-09-19T06:02:24;14.55;;;3.47;;
47860;SDS011;33620;52.340;5.984;2023-09-19T06:04:52;17.83;;;3.40;;
47860;SDS011;33620;52.340;5.984;2023-09-19T06:07:18;19.73;;;3.65;;
47860;SDS011;33620;52.340;5.984;2023-09-19T06:09:43;15.30;;;3.40;;
47860;SDS011;33620;52.340;5.984;2023-09-19T06:12:09;16.73;;;3.70;;
47860;SDS011;33620;52.340;5.984;2023-09-19T06:14:34;14.48;;;3.78;;
47860;SDS011;33620;52.340;5.984;2023-09-19T06:16:59;13.05;;;3.25;;
47860;SDS011;33620;52.340;5.984;2023-09-19T06:19:25;13.88;;;3.45;;
47860;SDS011;33620;52.340;5.984;2023-09-19T06:21:52;17.00;;;3.92;;
47860;SDS011;33620;52.340;5.984;2023-09-19T06:24:18;17.98;;;3.30;;
47860;SDS011;33620;52.340;5.984;2023-09-19T06:26:44;17.25;;;3.30;;
47860;SDS011;33620;52.340;5.984;2023-09-19T06:29:10;19.70;;;4.03;;
47860;SDS011;33620;52.340;5.984;2023-09-19T06:31:38;15.30;;;3.10;;
47860;SDS011;33620;52.340;5.984;2023-09-19T06:34:04;14.75;;;3.42;;
47860;SDS011;33620;52.340;5.984;2023-09-19T06:36:29;12.60;;;3.15;;
47860;SDS011;33620;52.340;5.984;2023-09-19T06:38:54;15.52;;;3.20;;
47860;SDS011;33620;52.340;5.984;2023-09-19T06:41:20;15.95;;;3.70;;
47860;SDS011;33620;52.340;5.984;2023-09-19T06:43:49;12.60;;;3.53;;
47860;SDS011;33620;52.340;5.984;2023-09-19T06:46:19;14.35;;;3.75;;
47860;SDS011;33620;52.340;5.984;2023-09-19T06:48:44;16.85;;;3.55;;
47860;SDS011;33620;52.340;5.984;2023-09-19T06:51:12;18.42;;;3.72;;
47860;SDS011;33620;52.340;5.984;2023-09-19T06:53:40;22.10;;;3.60;;
47860;SDS011;33620;52.340;5.984;2023-09-19T06:56:07;17.90;;;3.90;;
47860;SDS011;33620;52.340;5.984;2023-09-19T06:58:32;22.10;;;3.92;;
47860;SDS011;33620;52.340;5.984;2023-09-19T07:00:58;18.52;;;3.60;;
47860;SDS011;33620;52.340;5.984;2023-09-19T07:03:23;22.23;;;4.75;;
47860;SDS011;33620;52.340;5.984;2023-09-19T07:05:51;15.70;;;3.78;;
47860;SDS011;33620;52.340;5.984;2023-09-19T07:08:17;19.38;;;3.80;;
47860;SDS011;33620;52.340;5.984;2023-09-19T07:10:44;19.40;;;3.58;;
47860;SDS011;33620;52.340;5.984;2023-09-19T07:13:14;23.92;;;3.85;;
47860;SDS011;33620;52.340;5.984;2023-09-19T07:15:41;15.27;;;4.07;;
47860;SDS011;33620;52.340;5.984;2023-09-19T07:18:11;24.17;;;3.80;;
47860;SDS011;33620;52.340;5.984;2023-09-19T07:20:39;18.45;;;3.78;;
47860;SDS011;33620;52.340;5.984;2023-09-19T07:23:05;20.40;;;3.70;;
47860;SDS011;33620;52.340;5.984;2023-09-19T07:25:31;16.90;;;3.40;;
47860;SDS011;33620;52.340;5.984;2023-09-19T07:27:57;18.88;;;3.72;;
47860;SDS011;33620;52.340;5.984;2023-09-19T07:30:25;13.93;;;3.08;;
47860;SDS011;33620;52.340;5.984;2023-09-19T07:32:51;11.32;;;3.13;;
47860;SDS011;33620;52.340;5.984;2023-09-19T07:35:17;18.60;;;3.60;;
47860;SDS011;33620;52.340;5.984;2023-09-19T07:37:46;17.02;;;4.03;;
47860;SDS011;33620;52.340;5.984;2023-09-19T07:40:15;16.83;;;3.72;;
47860;SDS011;33620;52.340;5.984;2023-09-19T07:42:41;16.73;;;3.90;;
47860;SDS011;33620;52.340;5.984;2023-09-19T07:45:07;12.40;;;3.47;;
47860;SDS011;33620;52.340;5.984;2023-09-19T07:47:33;17.48;;;3.67;;
47860;SDS011;33620;52.340;5.984;2023-09-19T07:50:01;19.27;;;4.30;;
47860;SDS011;33620;52.340;5.984;2023-09-19T07:52:28;14.55;;;3.15;;
47860;SDS011;33620;52.340;5.984;2023-09-19T07:54:54;16.55;;;3.83;;
47860;SDS011;33620;52.340;5.984;2023-09-19T07:57:22;14.88;;;3.53;;
47860;SDS011;33620;52.340;5.984;2023-09-19T07:59:47;15.75;;;3.58;;
47860;SDS011;33620;52.340;5.984;2023-09-19T08:02:13;16.77;;;4.07;;
47860;SDS011;33620;52.340;5.984;2023-09-19T08:04:44;15.73;;;3.58;;
47860;SDS011;33620;52.340;5.984;2023-09-19T08:07:13;17.20;;;3.88;;
47860;SDS011;33620;52.340;5.984;2023-09-19T08:09:39;17.58;;;4.05;;
47860;SDS011;33620;52.340;5.984;2023-09-19T08:12:08;24.75;;;5.55;;
47860;SDS011;33620;52.340;5.984;2023-09-19T08:14:35;18.27;;;3.50;;
47860;SDS011;33620;52.340;5.984;2023-09-19T08:17:01;16.17;;;3.53;;
47860;SDS011;33620;52.340;5.984;2023-09-19T08:19:27;18.45;;;3.67;;
47860;SDS011;33620;52.340;5.984;2023-09-19T08:21:59;16.08;;;3.58;;
47860;SDS011;33620;52.340;5.984;2023-09-19T08:24:29;18.42;;;4.05;;
47860;SDS011;33620;52.340;5.984;2023-09-19T08:26:55;19.15;;;3.30;;
47860;SDS011;33620;52.340;5.984;2023-09-19T08:29:21;15.40;;;3.70;;
47860;SDS011;33620;52.340;5.984;2023-09-19T08:31:52;17.80;;;4.38;;
47860;SDS011;33620;52.340;5.984;2023-09-19T08:34:22;22.63;;;4.70;;
47860;SDS011;33620;52.340;5.984;2023-09-19T08:36:52;17.98;;;3.70;;
47860;SDS011;33620;52.340;5.984;2023-09-19T08:39:21;19.75;;;4.75;;
47860;SDS011;33620;52.340;5.984;2023-09-19T08:41:47;21.92;;;4.10;;
47860;SDS011;33620;52.340;5.984;2023-09-19T08:44:12;20.35;;;3.83;;
47860;SDS011;33620;52.340;5.984;2023-09-19T08:46:40;21.27;;;4.38;;
47860;SDS011;33620;52.340;5.984;2023-09-19T08:49:27;20.17;;;3.72;;
47860;SDS011;33620;52.340;5.984;2023-09-19T08:52:32;18.45;;;3.53;;
47860;SDS011;33620;52.340;5.984;2023-09-19T08:55:06;16.20;;;3.70;;
47860;SDS011;33620;52.340;5.984;2023-09-19T08:57:33;22.52;;;4.78;;
47860;SDS011;33620;52.340;5.984;2023-09-19T09:00:08;17.73;;;4.18;;
47860;SDS011;33620;52.340;5.984;2023-09-19T09:02:39;19.08;;;3.95;;
47860;SDS011;33620;52.340;5.984;2023-09-19T09:05:07;18.45;;;4.18;;
47860;SDS011;33620;52.340;5.984;2023-09-19T09:07:35;19.35;;;4.10;;
47860;SDS011;33620;52.340;5.984;2023-09-19T09:10:05;17.33;;;4.00;;
47860;SDS011;33620;52.340;5.984;2023-09-19T09:12:31;18.17;;;4.57;;
47860;SDS011;33620;52.340;5.984;2023-09-19T09:14:59;21.15;;;3.58;;
47860;SDS011;33620;52.340;5.984;2023-09-19T09:17:25;21.13;;;4.20;;
47860;SDS011;33620;52.340;5.984;2023-09-19T09:19:52;19.17;;;4.18;;
47860;SDS011;33620;52.340;5.984;2023-09-19T09:22:22;15.23;;;3.35;;
47860;SDS011;33620;52.340;5.984;2023-09-19T09:24:55;26.38;;;5.30;;
47860;SDS011;33620;52.340;5.984;2023-09-19T09:27:28;21.60;;;4.40;;
47860;SDS011;33620;52.340;5.984;2023-09-19T09:29:54;23.38;;;5.00;;
47860;SDS011;33620;52.340;5.984;2023-09-19T09:32:23;21.00;;;4.38;;
47860;SDS011;33620;52.340;5.984;2023-09-19T09:34:54;19.50;;;4.30;;
47860;SDS011;33620;52.340;5.984;2023-09-19T09:37:23;21.80;;;4.55;;
47860;SDS011;33620;52.340;5.984;2023-09-19T09:42:33;16.58;;;3.63;;
47860;SDS011;33620;52.340;5.984;2023-09-19T09:45:17;15.93;;;4.70;;
47860;SDS011;33620;52.340;5.984;2023-09-19T09:47:43;16.13;;;3.60;;
47860;SDS011;33620;52.340;5.984;2023-09-19T09:53:01;19.17;;;3.30;;
47860;SDS011;33620;52.340;5.984;2023-09-19T09:56:17;14.25;;;3.47;;
47860;SDS011;33620;52.340;5.984;2023-09-19T09:58:50;19.90;;;3.75;;
47860;SDS011;33620;52.340;5.984;2023-09-19T10:01:20;18.75;;;3.78;;
47860;SDS011;33620;52.340;5.984;2023-09-19T10:03:46;18.85;;;4.03;;
47860;SDS011;33620;52.340;5.984;2023-09-19T10:06:16;16.73;;;3.60;;
47860;SDS011;33620;52.340;5.984;2023-09-19T10:12:07;15.90;;;3.65;;
47860;SDS011;33620;52.340;5.984;2023-09-19T10:14:40;18.75;;;3.53;;
47860;SDS011;33620;52.340;5.984;2023-09-19T10:17:15;18.15;;;4.32;;
47860;SDS011;33620;52.340;5.984;2023-09-19T10:20:03;16.27;;;3.35;;
47860;SDS011;33620;52.340;5.984;2023-09-19T10:22:43;18.05;;;4.00;;
47860;SDS011;33620;52.340;5.984;2023-09-19T10:25:09;15.95;;;3.13;;
47860;SDS011;33620;52.340;5.984;2023-09-19T10:27:36;14.18;;;3.47;;
47860;SDS011;33620;52.340;5.984;2023-09-19T10:30:02;17.35;;;4.22;;
47860;SDS011;33620;52.340;5.984;2023-09-19T10:32:34;15.93;;;3.35;;
47860;SDS011;33620;52.340;5.984;2023-09-19T10:35:00;21.60;;;3.88;;
47860;SDS011;33620;52.340;5.984;2023-09-19T10:37:30;24.30;;;4.07;;
47860;SDS011;33620;52.340;5.984;2023-09-19T10:39:57;20.35;;;4.22;;
47860;SDS011;33620;52.340;5.984;2023-09-19T10:42:23;20.60;;;4.30;;
47860;SDS011;33620;52.340;5.984;2023-09-19T10:44:54;18.15;;;4.35;;
47860;SDS011;33620;52.340;5.984;2023-09-19T10:47:25;13.98;;;3.10;;
47860;SDS011;33620;52.340;5.984;2023-09-19T10:49:51;17.88;;;3.67;;
47860;SDS011;33620;52.340;5.984;2023-09-19T10:52:18;17.10;;;3.63;;
47860;SDS011;33620;52.340;5.984;2023-09-19T10:54:50;14.48;;;3.97;;
47860;SDS011;33620;52.340;5.984;2023-09-19T10:57:20;17.95;;;3.17;;
47860;SDS011;33620;52.340;5.984;2023-09-19T11:00:07;16.80;;;3.85;;
47860;SDS011;33620;52.340;5.984;2023-09-19T11:06:04;13.75;;;3.38;;
47860;SDS011;33620;52.340;5.984;2023-09-19T11:11:47;17.25;;;3.00;;
47860;SDS011;33620;52.340;5.984;2023-09-19T11:30:42;14.82;;;3.25;;
47860;SDS011;33620;52.340;5.984;2023-09-19T11:43:45;15.07;;;2.70;;
47860;SDS011;33620;52.340;5.984;2023-09-19T11:46:11;9.35;;;2.90;;
47860;SDS011;33620;52.340;5.984;2023-09-19T11:48:38;11.23;;;2.92;;
47860;SDS011;33620;52.340;5.984;2023-09-19T11:51:09;12.73;;;2.90;;
47860;SDS011;33620;52.340;5.984;2023-09-19T11:53:40;13.07;;;2.72;;
47860;SDS011;33620;52.340;5.984;2023-09-19T11:56:09;10.75;;;2.70;;
47860;SDS011;33620;52.340;5.984;2023-09-19T11:58:35;11.57;;;2.72;;
47860;SDS011;33620;52.340;5.984;2023-09-19T12:01:02;15.32;;;2.78;;
47860;SDS011;33620;52.340;5.984;2023-09-19T12:03:42;10.25;;;3.00;;
47860;SDS011;33620;52.340;5.984;2023-09-19T12:06:12;10.55;;;2.78;;
47860;SDS011;33620;52.340;5.984;2023-09-19T12:08:42;10.82;;;3.03;;
47860;SDS011;33620;52.340;5.984;2023-09-19T12:11:12;9.70;;;2.60;;
47860;SDS011;33620;52.340;5.984;2023-09-19T12:13:42;13.80;;;2.47;;
47860;SDS011;33620;52.340;5.984;2023-09-19T12:16:16;13.70;;;3.00;;
47860;SDS011;33620;52.340;5.984;2023-09-19T12:18:44;11.85;;;2.80;;
47860;SDS011;33620;52.340;5.984;2023-09-19T12:21:23;10.77;;;3.03;;
47860;SDS011;33620;52.340;5.984;2023-09-19T12:26:29;6.53;;;2.38;;
47860;SDS011;33620;52.340;5.984;2023-09-19T12:28:59;15.07;;;2.90;;
47860;SDS011;33620;52.340;5.984;2023-09-19T12:31:27;10.00;;;2.63;;
47860;SDS011;33620;52.340;5.984;2023-09-19T12:33:54;12.20;;;2.72;;
47860;SDS011;33620;52.340;5.984;2023-09-19T12:36:23;15.30;;;2.92;;
47860;SDS011;33620;52.340;5.984;2023-09-19T12:38:55;9.80;;;3.03;;
47860;SDS011;33620;52.340;5.984;2023-09-19T12:41:22;9.95;;;2.38;;
47860;SDS011;33620;52.340;5.984;2023-09-19T12:43:48;17.40;;;3.22;;
47860;SDS011;33620;52.340;5.984;2023-09-19T12:46:14;11.80;;;2.20;;
47860;SDS011;33620;52.340;5.984;2023-09-19T12:48:40;15.93;;;2.60;;
47860;SDS011;33620;52.340;5.984;2023-09-19T12:51:09;12.57;;;2.88;;
47860;SDS011;33620;52.340;5.984;2023-09-19T12:53:44;10.27;;;2.35;;
47860;SDS011;33620;52.340;5.984;2023-09-19T12:56:15;16.05;;;3.35;;
47860;SDS011;33620;52.340;5.984;2023-09-19T13:01:20;10.60;;;2.35;;
47860;SDS011;33620;52.340;5.984;2023-09-19T13:04:11;11.77;;;2.20;;
47860;SDS011;33620;52.340;5.984;2023-09-19T13:06:45;9.23;;;1.90;;
47860;SDS011;33620;52.340;5.984;2023-09-19T13:09:14;8.48;;;2.28;;
47860;SDS011;33620;52.340;5.984;2023-09-19T13:11:40;9.60;;;2.00;;
47860;SDS011;33620;52.340;5.984;2023-09-19T13:14:15;10.27;;;2.22;;
47860;SDS011;33620;52.340;5.984;2023-09-19T13:19:54;9.95;;;2.22;;
47860;SDS011;33620;52.340;5.984;2023-09-19T13:22:41;7.80;;;2.00;;
47860;SDS011;33620;52.340;5.984;2023-09-19T13:25:15;9.13;;;2.00;;
47860;SDS011;33620;52.340;5.984;2023-09-19T13:27:43;6.53;;;1.70;;
47860;SDS011;33620;52.340;5.984;2023-09-19T13:30:10;7.88;;;2.38;;
47860;SDS011;33620;52.340;5.984;2023-09-19T13:32:36;8.43;;;2.08;;
47860;SDS011;33620;52.340;5.984;2023-09-19T13:35:05;6.57;;;2.10;;
47860;SDS011;33620;52.340;5.984;2023-09-19T13:37:34;10.20;;;2.03;;
47860;SDS011;33620;52.340;5.984;2023-09-19T13:40:13;7.05;;;1.73;;
47860;SDS011;33620;52.340;5.984;2023-09-19T13:42:40;5.63;;;1.92;;
47860;SDS011;33620;52.340;5.984;2023-09-19T13:45:06;5.78;;;2.08;;
47860;SDS011;33620;52.340;5.984;2023-09-19T13:47:33;7.55;;;2.28;;
47860;SDS011;33620;52.340;5.984;2023-09-19T13:50:01;8.55;;;1.73;;
47860;SDS011;33620;52.340;5.984;2023-09-19T13:52:29;10.90;;;2.22;;
47860;SDS011;33620;52.340;5.984;2023-09-19T13:54:56;6.53;;;1.77;;
47860;SDS011;33620;52.340;5.984;2023-09-19T13:57:22;7.50;;;1.83;;
47860;SDS011;33620;52.340;5.984;2023-09-19T13:59:55;7.82;;;1.75;;
47860;SDS011;33620;52.340;5.984;2023-09-19T14:02:22;10.43;;;2.17;;
47860;SDS011;33620;52.340;5.984;2023-09-19T14:04:48;13.98;;;2.47;;
47860;SDS011;33620;52.340;5.984;2023-09-19T14:07:14;12.10;;;2.40;;
47860;SDS011;33620;52.340;5.984;2023-09-19T14:09:40;7.60;;;1.92;;
47860;SDS011;33620;52.340;5.984;2023-09-19T14:12:07;7.80;;;1.80;;
47860;SDS011;33620;52.340;5.984;2023-09-19T14:14:34;5.72;;;1.83;;
47860;SDS011;33620;52.340;5.984;2023-09-19T14:16:59;8.70;;;2.25;;
47860;SDS011;33620;52.340;5.984;2023-09-19T14:19:28;12.18;;;2.20;;
47860;SDS011;33620;52.340;5.984;2023-09-19T14:21:53;8.32;;;1.65;;
47860;SDS011;33620;52.340;5.984;2023-09-19T14:24:20;7.18;;;1.90;;
47860;SDS011;33620;52.340;5.984;2023-09-19T14:26:46;10.45;;;2.00;;
47860;SDS011;33620;52.340;5.984;2023-09-19T14:29:13;5.68;;;1.83;;
47860;SDS011;33620;52.340;5.984;2023-09-19T14:31:40;9.38;;;2.08;;
47860;SDS011;33620;52.340;5.984;2023-09-19T14:34:05;6.82;;;1.40;;
47860;SDS011;33620;52.340;5.984;2023-09-19T14:36:31;5.85;;;1.50;;
47860;SDS011;33620;52.340;5.984;2023-09-19T14:38:58;11.48;;;1.88;;
47860;SDS011;33620;52.340;5.984;2023-09-19T14:41:24;8.05;;;1.70;;
47860;SDS011;33620;52.340;5.984;2023-09-19T14:43:50;4.32;;;1.45;;
47860;SDS011;33620;52.340;5.984;2023-09-19T14:46:18;8.05;;;2.15;;
47860;SDS011;33620;52.340;5.984;2023-09-19T14:48:45;11.10;;;1.98;;
47860;SDS011;33620;52.340;5.984;2023-09-19T14:51:12;8.68;;;1.70;;
47860;SDS011;33620;52.340;5.984;2023-09-19T14:53:38;9.73;;;1.67;;
47860;SDS011;33620;52.340;5.984;2023-09-19T14:56:04;8.65;;;1.83;;
47860;SDS011;33620;52.340;5.984;2023-09-19T14:58:33;6.80;;;2.03;;
47860;SDS011;33620;52.340;5.984;2023-09-19T15:01:03;5.65;;;2.25;;
47860;SDS011;33620;52.340;5.984;2023-09-19T15:03:34;8.30;;;2.20;;
47860;SDS011;33620;52.340;5.984;2023-09-19T15:06:04;8.63;;;2.30;;
47860;SDS011;33620;52.340;5.984;2023-09-19T15:08:31;8.02;;;1.75;;
47860;SDS011;33620;52.340;5.984;2023-09-19T15:10:57;8.10;;;2.10;;
47860;SDS011;33620;52.340;5.984;2023-09-19T15:13:23;9.30;;;2.20;;
47860;SDS011;33620;52.340;5.984;2023-09-19T15:15:58;8.30;;;2.05;;
47860;SDS011;33620;52.340;5.984;2023-09-19T15:18:36;4.93;;;1.75;;
47860;SDS011;33620;52.340;5.984;2023-09-19T15:21:03;5.97;;;1.85;;
47860;SDS011;33620;52.340;5.984;2023-09-19T15:23:32;8.07;;;2.25;;
47860;SDS011;33620;52.340;5.984;2023-09-19T15:25:59;8.25;;;1.90;;
47860;SDS011;33620;52.340;5.984;2023-09-19T15:28:26;3.53;;;1.80;;
47860;SDS011;33620;52.340;5.984;2023-09-19T15:31:06;13.32;;;2.75;;
47860;SDS011;33620;52.340;5.984;2023-09-19T15:33:33;9.00;;;1.95;;
47860;SDS011;33620;52.340;5.984;2023-09-19T15:36:06;9.27;;;2.30;;
47860;SDS011;33620;52.340;5.984;2023-09-19T15:43:55;7.72;;;2.15;;
47860;SDS011;33620;52.340;5.984;2023-09-19T15:46:21;13.50;;;3.03;;
47860;SDS011;33620;52.340;5.984;2023-09-19T15:48:47;7.00;;;2.80;;
47860;SDS011;33620;52.340;5.984;2023-09-19T15:51:13;6.40;;;2.42;;